createdAt,value
2022-07-31T00:00:28.794Z,80.36
2022-07-31T00:03:05.023Z,80.33
2022-07-31T00:05:33.020Z,80.29
2022-07-31T00:08:09.517Z,80.17
2022-07-31T00:10:37.331Z,80.10
2022-07-31T00:13:05.235Z,80.11
2022-07-31T00:15:33.128Z,80.06
2022-07-31T00:18:00.972Z,80.04
2022-07-31T00:20:28.777Z,80.04
2022-07-31T00:22:57.493Z,80.06
2022-07-31T00:25:25.544Z,79.99
2022-07-31T00:27:53.637Z,80.04
2022-07-31T00:30:21.365Z,80.06
2022-07-31T00:32:51.789Z,79.97
2022-07-31T00:35:19.867Z,79.88
2022-07-31T00:37:47.735Z,79.89
2022-07-31T00:40:17.599Z,79.77
2022-07-31T00:42:46.060Z,79.83
2022-07-31T00:45:14.718Z,79.84
2022-07-31T00:47:43.511Z,79.88
2022-07-31T00:50:12.619Z,79.87
2022-07-31T00:52:40.715Z,79.72
2022-07-31T00:55:09.337Z,79.68
2022-07-31T00:57:37.393Z,79.62
2022-07-31T01:00:06.825Z,79.48
2022-07-31T01:02:34.764Z,79.53
2022-07-31T01:05:02.633Z,79.57
2022-07-31T01:07:30.503Z,79.62
2022-07-31T01:09:59.486Z,79.53
2022-07-31T01:12:36.250Z,79.42
2022-07-31T01:15:08.137Z,79.51
2022-07-31T01:17:37.118Z,79.43
2022-07-31T01:20:06.058Z,79.55
2022-07-31T01:22:45.950Z,79.50
2022-07-31T01:25:47.676Z,79.47
2022-07-31T01:28:45.180Z,79.45
2022-07-31T01:31:31.682Z,79.21
2022-07-31T01:34:40.665Z,79.01
2022-07-31T01:37:20.857Z,78.99
2022-07-31T01:40:03.078Z,78.96
2022-07-31T01:42:32.214Z,78.91
2022-07-31T01:45:03.366Z,78.92
2022-07-31T01:47:32.198Z,78.91
2022-07-31T01:50:00.706Z,78.85
2022-07-31T01:52:30.418Z,78.81
2022-07-31T01:54:59.146Z,78.66
2022-07-31T01:57:27.867Z,78.65
2022-07-31T02:00:01.431Z,78.66
2022-07-31T02:02:30.389Z,78.56
2022-07-31T02:04:58.468Z,78.53
2022-07-31T02:07:26.816Z,78.43
2022-07-31T02:09:58.433Z,78.37
2022-07-31T02:12:31.920Z,78.19
2022-07-31T02:15:07.201Z,78.07
2022-07-31T02:17:37.053Z,78.05
2022-07-31T02:20:07.790Z,77.96
2022-07-31T02:22:35.966Z,77.94
2022-07-31T02:25:05.442Z,77.93
2022-07-31T02:27:57.784Z,77.76
2022-07-31T02:30:21.752Z,77.83
2022-07-31T02:32:50.232Z,77.82
2022-07-31T02:35:18.673Z,77.84
2022-07-31T02:37:50.720Z,77.83
2022-07-31T02:40:19.311Z,77.84
2022-07-31T02:42:47.739Z,77.88
2022-07-31T02:45:16.163Z,77.89
2022-07-31T02:47:44.204Z,77.92
2022-07-31T02:50:12.953Z,77.96
2022-07-31T02:52:40.874Z,78.00
2022-07-31T02:55:09.574Z,78.05
2022-07-31T02:57:37.407Z,77.99
2022-07-31T03:00:27.015Z,77.89
2022-07-31T03:02:55.799Z,77.83
2022-07-31T03:05:24.044Z,77.84
2022-07-31T03:07:52.176Z,77.80
2022-07-31T03:10:20.108Z,77.85
2022-07-31T03:12:51.116Z,77.82
2022-07-31T03:15:21.907Z,77.89
2022-07-31T03:17:50.377Z,77.91
2022-07-31T03:20:18.728Z,78.00
2022-07-31T03:22:46.765Z,77.94
2022-07-31T03:25:20.213Z,77.96
2022-07-31T03:27:55.962Z,78.00
2022-07-31T03:30:25.477Z,77.89
2022-07-31T03:32:55.323Z,77.92
2022-07-31T03:35:24.891Z,77.87
2022-07-31T03:37:52.813Z,77.83
2022-07-31T03:40:20.957Z,77.90
2022-07-31T03:42:49.892Z,77.90
2022-07-31T03:45:18.827Z,77.85
2022-07-31T03:47:46.791Z,77.87
2022-07-31T03:50:15.481Z,77.80
2022-07-31T03:52:46.056Z,77.81
2022-07-31T03:55:14.581Z,77.69
2022-07-31T03:57:43.006Z,77.43
2022-07-31T04:00:17.038Z,77.45
2022-07-31T04:02:45.775Z,77.42
2022-07-31T04:05:13.871Z,77.62
2022-07-31T04:07:41.735Z,77.68
2022-07-31T04:10:10.275Z,77.69
2022-07-31T04:12:38.282Z,77.67
2022-07-31T04:15:06.802Z,77.77
2022-07-31T04:17:34.718Z,77.89
2022-07-31T04:20:02.683Z,78.02
2022-07-31T04:22:33.766Z,77.96
2022-07-31T04:25:02.007Z,78.22
2022-07-31T04:27:29.780Z,78.24
2022-07-31T04:29:58.085Z,78.23
2022-07-31T04:32:25.976Z,78.08
2022-07-31T04:34:54.128Z,78.10
2022-07-31T04:37:22.014Z,77.97
2022-07-31T04:39:49.966Z,77.98
2022-07-31T04:42:17.781Z,77.89
2022-07-31T04:44:45.785Z,77.89
2022-07-31T04:47:14.224Z,77.96
2022-07-31T04:49:42.159Z,78.16
2022-07-31T04:52:10.030Z,78.31
2022-07-31T04:54:39.066Z,78.37
2022-07-31T04:57:06.952Z,78.39
2022-07-31T04:59:57.694Z,78.34
2022-07-31T05:02:22.567Z,78.36
2022-07-31T05:04:52.622Z,78.21
2022-07-31T05:07:28.332Z,78.07
2022-07-31T05:09:58.717Z,77.97
2022-07-31T05:12:26.973Z,77.86
2022-07-31T05:14:54.929Z,77.79
2022-07-31T05:17:22.848Z,77.75
2022-07-31T05:19:50.762Z,77.52
2022-07-31T05:22:18.925Z,77.41
2022-07-31T05:24:46.854Z,77.39
2022-07-31T05:27:14.726Z,77.17
2022-07-31T05:29:42.644Z,77.15
2022-07-31T05:32:10.689Z,77.08
2022-07-31T05:34:38.587Z,76.96
2022-07-31T05:37:06.461Z,76.87
2022-07-31T05:39:34.318Z,76.78
2022-07-31T05:42:02.412Z,76.89
2022-07-31T05:44:30.437Z,76.92
2022-07-31T05:49:29.030Z,76.44
2022-07-31T05:51:57.925Z,76.28
2022-07-31T05:54:25.985Z,76.11
2022-07-31T05:56:53.877Z,76.01
2022-07-31T05:59:21.700Z,75.89
2022-07-31T06:01:50.118Z,75.74
2022-07-31T06:04:18.113Z,75.82
2022-07-31T06:06:45.880Z,75.73
2022-07-31T06:09:13.780Z,75.67
2022-07-31T06:11:41.685Z,75.60
2022-07-31T06:14:09.686Z,75.59
2022-07-31T06:16:37.507Z,75.74
2022-07-31T06:19:05.367Z,75.72
2022-07-31T06:21:36.391Z,75.67
2022-07-31T06:24:05.191Z,75.50
2022-07-31T06:26:33.577Z,75.44
2022-07-31T06:29:01.512Z,75.58
2022-07-31T06:31:29.450Z,75.51
2022-07-31T06:33:57.407Z,75.31
2022-07-31T06:36:25.276Z,75.06
2022-07-31T06:38:53.261Z,74.95
2022-07-31T06:41:40.028Z,74.81
2022-07-31T06:44:08.838Z,74.73
2022-07-31T06:46:38.495Z,74.67
2022-07-31T06:49:17.439Z,74.58
2022-07-31T06:51:45.773Z,74.39
2022-07-31T06:54:14.719Z,74.15
2022-07-31T06:56:43.016Z,73.95
2022-07-31T06:59:11.401Z,73.79
2022-07-31T07:01:39.790Z,73.40
2022-07-31T07:04:07.788Z,73.09
2022-07-31T07:06:36.205Z,72.62
2022-07-31T07:09:05.921Z,71.90
2022-07-31T07:11:38.124Z,70.90
2022-07-31T07:14:10.736Z,70.84
2022-07-31T07:16:38.755Z,69.19
2022-07-31T07:19:08.445Z,68.88
2022-07-31T07:21:36.462Z,68.17
2022-07-31T07:24:05.450Z,67.47
2022-07-31T07:26:33.580Z,66.87
2022-07-31T07:29:02.598Z,66.32
2022-07-31T07:31:30.566Z,66.25
2022-07-31T07:33:58.506Z,65.06
2022-07-31T07:36:26.378Z,63.91
2022-07-31T07:38:55.732Z,63.66
2022-07-31T07:41:25.307Z,63.12
2022-07-31T07:43:54.107Z,61.92
2022-07-31T07:46:23.466Z,61.21
2022-07-31T07:48:51.819Z,60.58
2022-07-31T07:51:20.599Z,59.52
2022-07-31T07:53:48.664Z,58.59
2022-07-31T07:56:17.252Z,58.12
2022-07-31T07:58:45.147Z,57.79
2022-07-31T08:01:13.341Z,58.49
2022-07-31T08:03:51.471Z,59.15
2022-07-31T08:06:22.691Z,58.87
2022-07-31T08:08:50.662Z,58.60
2022-07-31T08:11:18.666Z,58.24
2022-07-31T08:13:50.498Z,57.88
2022-07-31T08:16:20.778Z,57.45
2022-07-31T08:18:50.223Z,56.74
2022-07-31T08:21:17.978Z,57.64
2022-07-31T08:23:45.925Z,57.80
2022-07-31T08:26:18.604Z,57.59
2022-07-31T08:28:49.902Z,58.12
2022-07-31T08:31:21.107Z,57.63
2022-07-31T08:36:50.364Z,57.20
2022-07-31T08:39:21.299Z,57.63
2022-07-31T08:41:49.201Z,57.14
2022-07-31T08:44:17.026Z,57.00
2022-07-31T08:46:45.958Z,56.87
2022-07-31T08:49:17.606Z,56.50
2022-07-31T08:51:51.100Z,56.24
2022-07-31T08:54:21.013Z,56.13
2022-07-31T08:56:52.696Z,55.16
2022-07-31T08:59:22.210Z,54.34
2022-07-31T09:01:50.522Z,54.43
2022-07-31T09:04:18.942Z,53.83
2022-07-31T09:06:46.729Z,52.99
2022-07-31T09:09:17.250Z,52.85
2022-07-31T09:11:54.911Z,52.56
2022-07-31T09:14:37.277Z,52.17
2022-07-31T09:17:08.372Z,51.99
2022-07-31T09:19:52.010Z,51.90
2022-07-31T09:22:27.946Z,50.22
2022-07-31T09:25:19.109Z,50.51
2022-07-31T09:33:54.613Z,46.14
2022-07-31T09:36:24.578Z,45.28
2022-07-31T09:38:52.578Z,45.44
2022-07-31T09:41:56.853Z,45.52
2022-07-31T09:44:11.006Z,45.42
2022-07-31T09:46:48.437Z,45.71
2022-07-31T09:49:16.520Z,45.24
2022-07-31T09:51:48.355Z,46.32
2022-07-31T09:54:25.226Z,45.32
2022-07-31T09:56:53.512Z,44.48
2022-07-31T09:59:21.384Z,44.71
2022-07-31T10:01:50.141Z,43.78
2022-07-31T10:04:20.069Z,41.70
2022-07-31T10:06:50.649Z,42.09
2022-07-31T10:09:21.138Z,42.11
2022-07-31T10:11:50.986Z,41.30
2022-07-31T10:14:28.620Z,40.86
2022-07-31T10:16:59.606Z,41.40
2022-07-31T10:19:32.765Z,41.02
2022-07-31T10:22:04.764Z,39.99
2022-07-31T10:24:33.619Z,40.48
2022-07-31T10:27:08.087Z,41.19
2022-07-31T10:29:41.147Z,40.30
2022-07-31T10:32:09.632Z,39.19
2022-07-31T10:34:38.229Z,39.39
2022-07-31T10:37:21.264Z,39.43
2022-07-31T10:40:04.171Z,40.05
2022-07-31T10:42:52.003Z,40.39
2022-07-31T10:45:19.903Z,40.87
2022-07-31T10:47:56.846Z,40.47
2022-07-31T10:50:30.491Z,41.04
2022-07-31T10:53:13.657Z,39.92
2022-07-31T10:55:42.230Z,39.43
2022-07-31T10:58:21.970Z,38.39
2022-07-31T11:01:05.954Z,38.19
2022-07-31T11:03:49.841Z,38.38
2022-07-31T11:06:26.947Z,38.03
2022-07-31T11:08:57.898Z,38.86
2022-07-31T11:11:39.250Z,37.70
2022-07-31T11:14:54.342Z,38.42
2022-07-31T11:18:20.656Z,37.50
2022-07-31T11:20:40.568Z,37.80
2022-07-31T11:23:10.805Z,38.55
2022-07-31T11:25:39.261Z,38.29
2022-07-31T11:28:21.532Z,37.70
2022-07-31T11:31:01.030Z,37.49
2022-07-31T11:33:41.839Z,37.48
2022-07-31T11:36:15.572Z,37.36
2022-07-31T11:38:46.932Z,36.75
2022-07-31T11:41:22.253Z,36.56
2022-07-31T11:43:52.746Z,36.69
2022-07-31T11:46:33.364Z,36.25
2022-07-31T11:49:03.199Z,36.76
2022-07-31T11:51:31.558Z,36.96
2022-07-31T11:54:00.407Z,37.15
2022-07-31T11:56:28.401Z,36.44
2022-07-31T11:58:58.533Z,35.68
2022-07-31T12:01:29.222Z,36.09
2022-07-31T12:04:01.665Z,36.98
2022-07-31T12:06:38.678Z,37.33
2022-07-31T12:09:06.713Z,36.71
2022-07-31T12:11:34.622Z,36.56
2022-07-31T12:14:02.847Z,36.14
2022-07-31T12:16:41.449Z,36.22
2022-07-31T12:19:09.427Z,35.91
2022-07-31T12:21:40.210Z,36.37
2022-07-31T12:24:13.109Z,35.95
2022-07-31T12:26:50.323Z,35.63
2022-07-31T12:29:19.280Z,35.34
2022-07-31T12:31:53.822Z,35.54
2022-07-31T12:34:42.435Z,35.81
2022-07-31T12:37:16.778Z,35.63
2022-07-31T12:40:00.334Z,35.61
2022-07-31T12:42:41.201Z,35.31
2022-07-31T12:45:19.819Z,35.02
2022-07-31T12:47:53.833Z,35.80
2022-07-31T12:50:23.217Z,35.15
2022-07-31T12:52:52.020Z,34.97
2022-07-31T12:55:20.646Z,34.56
2022-07-31T12:57:51.131Z,34.81
2022-07-31T13:00:23.295Z,35.98
2022-07-31T13:02:53.008Z,35.00
2022-07-31T13:05:22.347Z,35.09
2022-07-31T13:07:50.629Z,34.22
2022-07-31T13:10:21.279Z,34.44
2022-07-31T13:12:52.370Z,35.11
2022-07-31T13:15:29.645Z,34.51
2022-07-31T13:18:02.217Z,34.79
2022-07-31T13:20:31.205Z,34.84
2022-07-31T13:23:02.974Z,35.23
2022-07-31T13:25:31.257Z,34.55
2022-07-31T13:27:59.790Z,34.83
2022-07-31T13:30:28.871Z,35.50
2022-07-31T13:32:56.888Z,35.44
2022-07-31T13:35:28.493Z,35.32
2022-07-31T13:37:57.269Z,34.54
2022-07-31T13:40:45.299Z,34.63
2022-07-31T13:43:13.896Z,33.48
2022-07-31T13:45:41.708Z,33.75
2022-07-31T13:48:10.327Z,33.44
2022-07-31T13:50:42.196Z,34.30
2022-07-31T13:53:10.517Z,34.91
2022-07-31T13:55:38.999Z,34.63
2022-07-31T13:58:07.625Z,34.52
2022-07-31T14:00:35.736Z,33.13
2022-07-31T14:03:03.791Z,32.56
2022-07-31T14:05:37.940Z,33.25
2022-07-31T14:08:32.550Z,33.13
2022-07-31T14:10:57.385Z,32.34
2022-07-31T14:13:25.657Z,33.10
2022-07-31T14:15:53.564Z,33.92
2022-07-31T14:18:23.419Z,33.54
2022-07-31T14:20:51.928Z,33.24
2022-07-31T14:23:19.821Z,32.88
2022-07-31T14:25:47.727Z,33.11
2022-07-31T14:28:15.633Z,33.24
2022-07-31T14:30:46.622Z,33.59
2022-07-31T14:33:17.817Z,33.71
2022-07-31T14:35:45.659Z,33.24
2022-07-31T14:38:26.953Z,32.94
2022-07-31T14:40:56.237Z,33.57
2022-07-31T14:43:24.148Z,33.38
2022-07-31T14:45:52.343Z,33.20
2022-07-31T14:48:20.947Z,32.64
2022-07-31T14:50:48.951Z,33.10
2022-07-31T14:53:16.788Z,33.42
2022-07-31T14:55:45.273Z,33.70
2022-07-31T14:58:13.257Z,33.66
2022-07-31T15:00:41.477Z,33.76
2022-07-31T15:03:09.231Z,33.47
2022-07-31T15:06:41.794Z,33.14
2022-07-31T15:08:24.979Z,33.55
2022-07-31T15:10:52.833Z,33.21
2022-07-31T15:13:20.616Z,33.26
2022-07-31T15:15:49.211Z,33.67
2022-07-31T15:18:17.131Z,33.79
2022-07-31T15:20:44.870Z,33.81
2022-07-31T15:23:12.811Z,33.35
2022-07-31T15:25:40.862Z,33.67
2022-07-31T15:28:08.736Z,32.56
2022-07-31T15:30:36.741Z,32.87
2022-07-31T15:33:04.765Z,33.51
2022-07-31T15:35:32.874Z,33.50
2022-07-31T15:38:02.365Z,32.74
2022-07-31T15:40:30.262Z,33.20
2022-07-31T15:42:58.523Z,33.41
2022-07-31T15:45:26.406Z,33.46
2022-07-31T15:47:54.218Z,33.69
2022-07-31T15:50:22.159Z,33.47
2022-07-31T15:52:50.181Z,33.45
2022-07-31T15:55:18.347Z,32.70
2022-07-31T15:57:46.890Z,33.06
2022-07-31T16:00:15.324Z,33.29
2022-07-31T16:02:45.437Z,33.05
2022-07-31T16:05:22.072Z,33.00
2022-07-31T16:08:30.040Z,32.01
2022-07-31T16:10:55.106Z,32.19
2022-07-31T16:13:25.113Z,32.18
2022-07-31T16:15:54.116Z,32.96
2022-07-31T16:18:22.258Z,32.87
2022-07-31T16:20:50.363Z,33.15
2022-07-31T16:23:18.303Z,33.11
2022-07-31T16:25:46.658Z,32.58
2022-07-31T16:28:15.253Z,32.80
2022-07-31T16:30:45.855Z,32.39
2022-07-31T16:33:14.110Z,32.53
2022-07-31T16:35:42.211Z,32.69
2022-07-31T16:38:10.024Z,33.09
2022-07-31T16:40:37.835Z,33.37
2022-07-31T16:43:48.711Z,33.27
2022-07-31T16:45:56.137Z,33.14
2022-07-31T16:48:24.593Z,33.37
2022-07-31T16:50:53.705Z,33.65
2022-07-31T16:54:11.673Z,33.67
2022-07-31T16:56:16.122Z,33.70
2022-07-31T16:58:44.301Z,33.49
2022-07-31T17:01:57.260Z,33.35
2022-07-31T17:04:04.281Z,33.64
2022-07-31T17:06:36.507Z,33.71
2022-07-31T17:09:15.156Z,33.97
2022-07-31T17:11:49.972Z,33.89
2022-07-31T17:14:20.430Z,34.14
2022-07-31T17:16:50.120Z,33.93
2022-07-31T17:19:41.649Z,34.05
2022-07-31T17:22:11.349Z,34.24
2022-07-31T17:24:39.818Z,34.23
2022-07-31T17:27:09.266Z,36.47
2022-07-31T17:29:39.426Z,38.39
2022-07-31T17:32:08.173Z,38.74
2022-07-31T17:34:40.387Z,38.66
2022-07-31T17:37:08.932Z,39.11
2022-07-31T17:39:37.293Z,39.31
2022-07-31T17:42:05.178Z,39.53
2022-07-31T17:44:33.185Z,39.77
2022-07-31T17:47:07.529Z,40.06
2022-07-31T17:49:35.942Z,40.22
2022-07-31T17:52:04.424Z,40.24
2022-07-31T17:54:34.051Z,40.72
2022-07-31T17:57:04.448Z,40.75
2022-07-31T17:59:33.037Z,40.87
2022-07-31T18:02:01.108Z,41.02
2022-07-31T18:04:35.110Z,41.55
2022-07-31T18:07:05.346Z,41.86
2022-07-31T18:09:35.413Z,42.25
2022-07-31T18:12:03.793Z,42.40
2022-07-31T18:14:33.843Z,42.79
2022-07-31T18:17:02.462Z,43.10
2022-07-31T18:19:30.577Z,43.67
2022-07-31T18:21:58.445Z,43.76
2022-07-31T18:24:26.382Z,44.10
2022-07-31T18:26:57.390Z,44.34
2022-07-31T18:29:25.602Z,44.64
2022-07-31T18:31:59.131Z,45.03
2022-07-31T18:34:27.422Z,45.17
2022-07-31T18:36:56.646Z,45.52
2022-07-31T18:39:26.116Z,45.74
2022-07-31T18:41:56.447Z,46.07
2022-07-31T18:44:26.413Z,46.26
2022-07-31T18:46:58.667Z,46.53
2022-07-31T18:51:00.026Z,46.79
2022-07-31T18:52:15.122Z,46.96
2022-07-31T18:54:43.352Z,47.47
2022-07-31T18:57:15.788Z,48.34
2022-07-31T18:59:44.145Z,48.67
2022-07-31T19:02:12.504Z,49.33
2022-07-31T19:04:40.495Z,49.72
2022-07-31T19:07:09.046Z,50.22
2022-07-31T19:09:37.208Z,51.20
2022-07-31T19:12:08.247Z,52.38
2022-07-31T19:14:37.363Z,53.53
2022-07-31T19:17:08.354Z,53.13
2022-07-31T19:19:54.419Z,53.72
2022-07-31T19:22:23.602Z,53.98
2022-07-31T19:24:53.115Z,54.46
2022-07-31T19:27:21.517Z,54.63
2022-07-31T19:30:02.312Z,55.01
2022-07-31T19:32:31.065Z,55.10
2022-07-31T19:34:59.754Z,55.33
2022-07-31T19:37:27.806Z,55.52
2022-07-31T19:39:55.645Z,57.40
2022-07-31T19:42:23.775Z,58.02
2022-07-31T19:44:51.789Z,59.05
2022-07-31T19:47:19.589Z,58.93
2022-07-31T19:49:48.028Z,59.71
2022-07-31T19:52:16.078Z,59.86
2022-07-31T19:54:43.862Z,59.78
2022-07-31T19:57:11.798Z,60.10
2022-07-31T19:59:40.607Z,60.35
2022-07-31T20:02:08.860Z,60.83
2022-07-31T20:04:37.423Z,61.00
2022-07-31T20:07:05.337Z,61.48
2022-07-31T20:10:13.357Z,62.56
2022-07-31T20:12:40.566Z,63.02
2022-07-31T20:15:08.552Z,62.28
2022-07-31T20:17:38.829Z,62.26
2022-07-31T20:20:15.660Z,62.29
2022-07-31T20:22:54.259Z,62.23
2022-07-31T20:25:22.049Z,61.74
2022-07-31T20:27:53.040Z,61.10
2022-07-31T20:30:22.548Z,60.88
2022-07-31T20:32:55.033Z,59.80
2022-07-31T20:35:47.205Z,60.36
2022-07-31T20:38:16.088Z,60.33
2022-07-31T20:40:51.183Z,59.27
2022-07-31T20:43:22.770Z,59.76
2022-07-31T20:45:49.477Z,60.26
2022-07-31T20:48:20.532Z,60.75
2022-07-31T20:50:48.588Z,60.98
2022-07-31T20:53:22.721Z,61.41
2022-07-31T20:55:50.132Z,61.82
2022-07-31T20:58:23.207Z,62.02
2022-07-31T21:00:52.005Z,61.85
2022-07-31T21:03:19.589Z,63.05
2022-07-31T21:05:46.618Z,63.09
2022-07-31T21:08:13.137Z,63.07
2022-07-31T21:10:40.329Z,62.85
2022-07-31T21:13:07.214Z,62.17
2022-07-31T21:15:43.129Z,62.31
2022-07-31T21:18:16.358Z,62.48
2022-07-31T21:20:52.375Z,62.41
2022-07-31T21:23:25.226Z,62.50
2022-07-31T21:25:54.462Z,62.29
2022-07-31T21:28:22.944Z,62.14
2022-07-31T21:30:53.106Z,61.64
2022-07-31T21:33:19.845Z,61.79
2022-07-31T21:35:46.993Z,61.68
2022-07-31T21:38:15.382Z,62.28
2022-07-31T21:40:44.643Z,62.38
2022-07-31T21:43:12.479Z,62.27
2022-07-31T21:45:50.981Z,62.31
2022-07-31T21:48:25.539Z,62.18
2022-07-31T21:50:54.189Z,62.51
2022-07-31T21:53:21.476Z,62.59
2022-07-31T21:55:48.515Z,62.41
2022-07-31T21:58:15.552Z,62.46
2022-07-31T22:00:43.344Z,62.75
2022-07-31T22:03:35.505Z,62.91
2022-07-31T22:06:25.835Z,63.07
2022-07-31T22:08:52.726Z,63.26
2022-07-31T22:11:19.598Z,63.27
2022-07-31T22:13:46.071Z,63.30
2022-07-31T22:16:12.633Z,62.96
2022-07-31T22:18:39.538Z,62.98
2022-07-31T22:21:07.840Z,63.21
2022-07-31T22:23:35.559Z,63.37
2022-07-31T22:26:02.895Z,63.70
2022-07-31T22:28:29.635Z,63.43
2022-07-31T22:30:56.982Z,63.20
2022-07-31T22:33:23.853Z,63.07
2022-07-31T22:42:18.060Z,63.97
2022-07-31T22:44:46.689Z,64.24
2022-07-31T22:47:16.623Z,64.39
2022-07-31T22:49:44.685Z,64.30
2022-07-31T22:52:12.668Z,64.11
2022-07-31T22:54:41.585Z,64.13
2022-07-31T22:57:09.486Z,64.89
2022-07-31T22:59:37.852Z,64.08
2022-07-31T23:02:09.159Z,62.70
2022-07-31T23:04:37.953Z,60.60
2022-07-31T23:07:06.334Z,57.61
2022-07-31T23:09:34.149Z,57.46
2022-07-31T23:12:03.951Z,58.93
2022-07-31T23:14:32.292Z,60.14
2022-07-31T23:17:00.517Z,61.07
2022-07-31T23:19:28.937Z,61.77
2022-07-31T23:21:56.895Z,63.92
2022-07-31T23:24:24.763Z,63.19
2022-07-31T23:26:52.524Z,59.96
2022-07-31T23:29:20.325Z,56.29
2022-07-31T23:31:48.139Z,56.00
2022-07-31T23:34:17.159Z,57.58
2022-07-31T23:36:45.126Z,58.69
2022-07-31T23:39:13.115Z,59.23
2022-07-31T23:41:59.641Z,59.83
2022-07-31T23:44:27.470Z,60.35
2022-07-31T23:46:55.291Z,61.22
2022-07-31T23:49:24.645Z,61.74
2022-07-31T23:51:52.627Z,64.29
2022-07-31T23:54:20.629Z,63.54
2022-07-31T23:56:48.372Z,59.73
2022-07-31T23:59:16.163Z,56.04
